Time;durP1;ratioP1;P1;durP2;ratioP2;P2;SDS_P1;SDS_P2;PMS_P1;PMS_P2;Temp;Humidity;BMP_temperature;BMP_pressure;BME280_temperature;BME280_humidity;BME280_pressure;Samples;Min_cycle;Max_cycle;Signal;HPM_P1;HPM_P2
2022/07/15 00:00:10;;;;;;;3.63;3.30;;;15.00;99.90;;;;;;4877640;29;20289;-65
2022/07/15 00:02:38;;;;;;;6.83;3.77;;;14.90;99.90;;;;;;4878858;29;20198;-64
2022/07/15 00:05:08;;;;;;;6.43;3.37;;;14.90;99.90;;;;;;4878429;29;20198;-65
2022/07/15 00:07:37;;;;;;;7.03;4.10;;;14.90;99.90;;;;;;4878545;29;20721;-65
2022/07/15 00:10:18;;;;;;;4.90;3.90;;;14.80;99.90;;;;;;4881620;29;20202;-65
2022/07/15 00:12:50;;;;;;;7.07;3.90;;;14.80;99.90;;;;;;4882310;29;20285;-65
2022/07/15 00:15:20;;;;;;;6.87;4.10;;;14.70;99.90;;;;;;4882494;29;20242;-65
2022/07/15 00:17:48;;;;;;;7.40;3.90;;;14.70;99.90;;;;;;4882116;29;20270;-65
2022/07/15 00:20:17;;;;;;;5.80;3.77;;;14.60;99.90;;;;;;4881532;29;20238;-65
2022/07/15 00:22:56;;;;;;;5.87;4.10;;;14.60;99.90;;;;;;4882189;29;20238;-65
2022/07/15 00:25:26;;;;;;;6.57;3.90;;;14.60;99.90;;;;;;4882439;29;20607;-65
2022/07/15 00:27:56;;;;;;;9.33;4.20;;;14.50;99.90;;;;;;4880860;29;20704;-65
2022/07/15 00:30:29;;;;;;;8.40;4.13;;;14.50;99.90;;;;;;4882698;29;20250;-65
2022/07/15 00:32:58;;;;;;;7.90;3.97;;;14.50;99.90;;;;;;4882347;29;20206;-65
2022/07/15 00:35:29;;;;;;;6.23;4.40;;;14.40;99.90;;;;;;4880850;29;20629;-65
2022/07/15 00:37:58;;;;;;;6.07;3.90;;;14.40;99.90;;;;;;4880723;29;20683;-65
2022/07/15 00:40:28;;;;;;;10.17;4.03;;;14.30;99.90;;;;;;4882309;29;20289;-65
2022/07/15 00:42:57;;;;;;;5.90;3.83;;;14.30;99.90;;;;;;4880702;29;20244;-65
2022/07/15 00:45:25;;;;;;;6.20;3.40;;;14.20;99.90;;;;;;4882056;29;20562;-65
2022/07/15 00:47:56;;;;;;;4.10;3.70;;;14.10;99.90;;;;;;4881926;29;20198;-65
2022/07/15 00:50:26;;;;;;;7.47;3.90;;;14.10;99.90;;;;;;4881838;29;20198;-65
2022/07/15 00:52:57;;;;;;;7.77;4.57;;;14.00;99.90;;;;;;4887248;29;20230;-65
2022/07/15 00:55:28;;;;;;;7.97;4.40;;;13.90;99.90;;;;;;4869241;29;20616;-65
2022/07/15 00:58:01;;;;;;;6.70;4.03;;;13.90;99.90;;;;;;4881275;29;20334;-65
2022/07/15 01:00:30;;;;;;;6.20;4.03;;;13.80;99.90;;;;;;4881064;29;20230;-65
2022/07/15 01:03:01;;;;;;;8.30;4.07;;;13.80;99.90;;;;;;4880572;29;20215;-65
2022/07/15 01:05:30;;;;;;;5.40;3.80;;;13.70;99.90;;;;;;4881440;29;20254;-65
2022/07/15 01:07:58;;;;;;;6.40;3.90;;;13.70;99.90;;;;;;4878484;29;20286;-65
2022/07/15 01:10:28;;;;;;;8.70;4.33;;;13.70;99.90;;;;;;4871678;29;20669;-65
2022/07/15 01:12:57;;;;;;;4.27;3.60;;;13.70;99.90;;;;;;4879901;29;20821;-65
2022/07/15 01:15:25;;;;;;;9.20;3.97;;;13.60;99.90;;;;;;4880683;29;20205;-65
2022/07/15 01:17:54;;;;;;;6.63;4.00;;;13.60;99.90;;;;;;4881242;29;20703;-65
2022/07/15 01:20:23;;;;;;;10.83;4.13;;;13.50;99.90;;;;;;4880976;29;20801;-65
2022/07/15 01:22:53;;;;;;;5.63;3.80;;;13.50;99.90;;;;;;4879131;29;20297;-65
2022/07/15 01:25:22;;;;;;;8.47;4.70;;;13.40;99.90;;;;;;4881066;29;20360;-65
2022/07/15 01:27:50;;;;;;;6.97;4.30;;;13.40;99.90;;;;;;4869114;29;20310;-65
2022/07/15 01:30:18;;;;;;;9.70;4.40;;;13.40;99.90;;;;;;4880795;29;20282;-65
2022/07/15 01:32:47;;;;;;;10.07;5.27;;;13.30;99.90;;;;;;4879744;29;20340;-65
2022/07/15 01:35:16;;;;;;;5.20;4.70;;;13.30;99.90;;;;;;4880814;29;20282;-65
2022/07/15 01:37:46;;;;;;;10.97;5.07;;;13.30;99.90;;;;;;4880986;29;20203;-65
2022/07/15 01:40:16;;;;;;;12.03;4.10;;;13.30;99.90;;;;;;4880767;29;20210;-65
2022/07/15 01:42:44;;;;;;;8.50;4.17;;;13.20;99.90;;;;;;4880800;29;20603;-65
2022/07/15 01:45:13;;;;;;;6.70;4.10;;;13.20;99.90;;;;;;4880618;29;20711;-65
2022/07/15 01:47:46;;;;;;;9.23;4.47;;;13.10;99.90;;;;;;4880706;29;20286;-65
2022/07/15 01:50:14;;;;;;;5.73;4.50;;;13.00;99.90;;;;;;4880400;29;20205;-65
2022/07/15 01:52:46;;;;;;;8.70;4.63;;;13.00;99.90;;;;;;4884578;29;20277;-65
2022/07/15 01:55:14;;;;;;;11.70;5.03;;;12.90;99.90;;;;;;4895530;29;20782;-65
2022/07/15 01:57:43;;;;;;;5.60;4.57;;;12.90;99.90;;;;;;4880696;29;20209;-65
2022/07/15 02:00:16;;;;;;;9.07;4.70;;;12.90;99.90;;;;;;4879029;29;20314;-65
2022/07/15 02:02:44;;;;;;;6.33;4.30;;;12.90;99.90;;;;;;4880692;29;20209;-65
2022/07/15 02:05:13;;;;;;;9.17;4.90;;;12.90;99.90;;;;;;4880198;29;20207;-65
2022/07/15 02:07:42;;;;;;;10.90;5.23;;;12.90;99.90;;;;;;4880377;29;20203;-65
2022/07/15 02:10:13;;;;;;;7.00;4.77;;;12.80;99.90;;;;;;4867864;29;20281;-65
2022/07/15 02:12:44;;;;;;;5.53;4.80;;;12.80;99.90;;;;;;4880122;29;20297;-65
2022/07/15 02:15:13;;;;;;;6.70;4.53;;;12.80;99.90;;;;;;4880217;29;20250;-65
2022/07/15 02:17:42;;;;;;;6.60;4.20;;;12.70;99.90;;;;;;4879104;29;20309;-65
2022/07/15 02:20:11;;;;;;;7.60;4.53;;;12.70;99.90;;;;;;4880076;29;20309;-65
2022/07/15 02:22:39;;;;;;;7.83;4.90;;;12.70;99.90;;;;;;4880213;29;20239;-65
2022/07/15 02:25:08;;;;;;;7.63;4.60;;;12.70;99.90;;;;;;4879967;29;20294;-65
2022/07/15 02:27:36;;;;;;;8.37;5.37;;;12.70;99.90;;;;;;4880414;29;20282;-65
2022/07/15 02:30:07;;;;;;;12.17;5.60;;;12.60;99.90;;;;;;4880019;29;20743;-65
2022/07/15 02:32:35;;;;;;;13.07;5.50;;;12.70;99.90;;;;;;4880186;29;20213;-65
2022/07/15 02:35:04;;;;;;;9.77;5.53;;;12.70;99.90;;;;;;4880012;29;20222;-65
2022/07/15 02:37:33;;;;;;;10.10;5.60;;;12.80;99.90;;;;;;4878778;29;20213;-65
2022/07/15 02:40:02;;;;;;;9.77;5.17;;;12.80;99.90;;;;;;4879605;29;20221;-65
2022/07/15 02:42:31;;;;;;;8.53;4.97;;;12.80;99.90;;;;;;4867974;29;20199;-65
2022/07/15 02:44:59;;;;;;;9.83;5.60;;;12.80;99.90;;;;;;4879333;29;20562;-65
2022/07/15 02:47:29;;;;;;;7.00;5.37;;;12.80;99.90;;;;;;4878472;29;20293;-65
2022/07/15 02:50:01;;;;;;;8.80;4.97;;;12.80;99.90;;;;;;4879134;29;20272;-65
2022/07/15 02:52:30;;;;;;;9.67;4.83;;;12.70;99.90;;;;;;4881284;29;20290;-65
2022/07/15 02:54:58;;;;;;;12.33;4.93;;;12.70;99.90;;;;;;4882558;29;20856;-65
2022/07/15 02:57:27;;;;;;;8.73;5.00;;;12.70;99.90;;;;;;4879139;29;20202;-65
2022/07/15 02:59:55;;;;;;;7.47;4.30;;;12.60;99.90;;;;;;4877573;29;20298;-65
2022/07/15 03:02:24;;;;;;;6.07;4.40;;;12.50;99.90;;;;;;4877588;29;20222;-66
2022/07/15 03:04:54;;;;;;;7.67;4.57;;;12.50;99.90;;;;;;4878096;29;20234;-65
2022/07/15 03:07:22;;;;;;;10.53;5.17;;;12.40;99.90;;;;;;4876712;29;20635;-65
2022/07/15 03:09:50;;;;;;;9.90;5.10;;;12.40;99.90;;;;;;4876749;29;20571;-65
2022/07/15 03:12:19;;;;;;;8.50;4.50;;;12.30;99.90;;;;;;4878712;29;20624;-65
2022/07/15 03:14:47;;;;;;;7.83;5.20;;;12.30;99.90;;;;;;4878717;29;20229;-65
2022/07/15 03:17:15;;;;;;;10.23;5.53;;;12.20;99.90;;;;;;4878646;29;20285;-65
2022/07/15 03:19:44;;;;;;;9.47;4.80;;;12.20;99.90;;;;;;4868967;29;20226;-65
2022/07/15 03:22:14;;;;;;;10.63;5.30;;;12.20;99.90;;;;;;4878556;29;20242;-65
2022/07/15 03:24:42;;;;;;;10.83;5.63;;;12.20;99.90;;;;;;4878551;29;20305;-65
2022/07/15 03:27:11;;;;;;;11.20;5.83;;;12.10;99.90;;;;;;4878680;29;20253;-65
2022/07/15 03:29:39;;;;;;;13.07;6.00;;;12.10;99.90;;;;;;4877076;29;20227;-65
2022/07/15 03:32:08;;;;;;;9.17;6.03;;;12.10;99.90;;;;;;4878688;29;20282;-65
2022/07/15 03:34:37;;;;;;;9.20;5.50;;;12.10;99.90;;;;;;4878490;29;20206;-64
2022/07/15 03:37:05;;;;;;;10.07;5.47;;;12.00;99.90;;;;;;4877984;29;20648;-65
2022/07/15 03:39:35;;;;;;;11.07;5.60;;;12.00;99.90;;;;;;4878509;29;20246;-64
2022/07/15 03:42:04;;;;;;;7.07;5.87;;;12.00;99.90;;;;;;4878703;29;20207;-65
2022/07/15 03:44:33;;;;;;;5.77;5.20;;;12.00;99.90;;;;;;4878024;29;20231;-65
2022/07/15 03:47:01;;;;;;;11.90;6.03;;;12.00;99.90;;;;;;4878624;29;20225;-65
2022/07/15 03:49:30;;;;;;;10.60;5.67;;;12.00;99.90;;;;;;4878484;29;20210;-65
2022/07/15 03:51:58;;;;;;;10.87;5.70;;;12.00;99.90;;;;;;4878622;29;20213;-65
2022/07/15 03:54:26;;;;;;;9.50;5.50;;;12.00;99.90;;;;;;4877412;29;20600;-65
2022/07/15 03:56:56;;;;;;;10.10;6.00;;;12.10;99.90;;;;;;4877391;29;20234;-65
2022/07/15 03:59:25;;;;;;;8.43;5.87;;;12.10;99.90;;;;;;4878471;29;20230;-65
2022/07/15 04:01:53;;;;;;;8.80;6.00;;;12.10;99.90;;;;;;4884612;29;20643;-65
2022/07/15 04:04:22;;;;;;;12.57;5.73;;;12.10;99.90;;;;;;4877139;29;20663;-65
2022/07/15 04:06:50;;;;;;;6.33;5.40;;;12.10;99.90;;;;;;4877204;29;20227;-65
2022/07/15 04:09:19;;;;;;;8.73;5.33;;;12.20;99.90;;;;;;4878513;29;20608;-64
2022/07/15 04:11:47;;;;;;;11.83;5.33;;;12.10;99.90;;;;;;4878592;29;20203;-65
2022/07/15 04:14:19;;;;;;;12.33;5.40;;;12.10;99.90;;;;;;4878017;29;20658;-65
2022/07/15 04:16:48;;;;;;;7.30;5.27;;;12.10;99.90;;;;;;4877748;29;20286;-65
2022/07/15 04:19:16;;;;;;;6.90;5.27;;;12.10;99.90;;;;;;4878065;29;20211;-64
2022/07/15 04:21:46;;;;;;;11.47;5.40;;;12.20;99.90;;;;;;4878270;29;20227;-65
2022/07/15 04:24:14;;;;;;;8.27;5.40;;;12.20;99.90;;;;;;4878246;29;20226;-64
2022/07/15 04:26:50;;;;;;;11.03;5.40;;;12.30;99.90;;;;;;4878254;29;20208;-65
2022/07/15 04:29:20;;;;;;;7.33;5.10;;;12.40;99.90;;;;;;4876846;29;20298;-65
2022/07/15 04:31:48;;;;;;;9.37;5.17;;;12.40;99.90;;;;;;4878353;29;20215;-64
2022/07/15 04:34:17;;;;;;;8.23;5.10;;;12.40;99.90;;;;;;4877879;29;20213;-65
2022/07/15 04:36:45;;;;;;;7.47;5.07;;;12.50;99.90;;;;;;4877368;29;20206;-65
2022/07/15 04:39:13;;;;;;;10.00;5.03;;;12.50;99.90;;;;;;4878046;29;20210;-64
2022/07/15 04:41:42;;;;;;;8.33;4.90;;;12.60;99.90;;;;;;4876915;29;20218;-64
2022/07/15 04:44:11;;;;;;;6.50;4.90;;;12.70;99.90;;;;;;4878073;29;20203;-64
2022/07/15 04:46:40;;;;;;;7.53;5.50;;;12.80;99.90;;;;;;4878271;29;20206;-65
2022/07/15 04:51:55;;;;;;;8.57;5.47;;;12.90;99.90;;;;;;4878015;29;20233;-65
2022/07/15 04:54:23;;;;;;;6.60;4.80;;;13.00;99.90;;;;;;4883365;29;20199;-65
2022/07/15 04:56:52;;;;;;;9.33;5.20;;;13.10;99.90;;;;;;4877359;29;20294;-65
2022/07/15 04:59:21;;;;;;;9.60;5.17;;;13.20;99.90;;;;;;4880122;29;20242;-65
2022/07/15 05:01:51;;;;;;;9.10;5.23;;;13.20;99.90;;;;;;4881507;29;20341;-65
2022/07/15 05:04:19;;;;;;;7.97;5.30;;;13.30;99.90;;;;;;4881167;29;20207;-65
2022/07/15 05:06:48;;;;;;;8.63;5.80;;;13.40;99.90;;;;;;4881335;29;20205;-65
2022/07/15 05:09:17;;;;;;;17.10;6.70;;;13.50;99.90;;;;;;4881013;29;20301;-65
2022/07/15 05:11:45;;;;;;;9.93;6.10;;;13.60;99.90;;;;;;4881293;29;20584;-65
2022/07/15 05:14:14;;;;;;;13.07;6.13;;;13.70;99.90;;;;;;4881000;29;20207;-65
2022/07/15 05:16:43;;;;;;;10.37;6.10;;;13.90;99.90;;;;;;4873205;29;20291;-65
2022/07/15 05:19:13;;;;;;;11.50;6.13;;;14.10;99.90;;;;;;4876676;29;20214;-65
2022/07/15 05:21:42;;;;;;;9.97;6.00;;;14.30;99.90;;;;;;4881157;29;20226;-65
2022/07/15 05:24:11;;;;;;;9.83;6.90;;;14.50;99.90;;;;;;4880844;29;20234;-65
2022/07/15 05:26:58;;;;;;;13.23;6.67;;;14.70;99.90;;;;;;4880816;29;20675;-65
2022/07/15 05:29:27;;;;;;;10.33;6.60;;;14.90;99.90;;;;;;4880882;29;20199;-65
2022/07/15 05:31:55;;;;;;;8.33;5.67;;;15.10;99.90;;;;;;4881117;29;20660;-65
2022/07/15 05:34:25;;;;;;;12.87;6.57;;;15.20;99.90;;;;;;4879442;29;20251;-65
2022/07/15 05:36:54;;;;;;;12.63;6.13;;;15.40;99.90;;;;;;4879722;29;20212;-65
2022/07/15 05:39:23;;;;;;;10.63;6.00;;;15.50;99.90;;;;;;4880937;29;20268;-65
2022/07/15 05:41:51;;;;;;;9.97;5.90;;;15.70;99.90;;;;;;4879213;29;20219;-66
2022/07/15 05:44:20;;;;;;;9.80;6.17;;;15.80;99.90;;;;;;4880639;29;20208;-65
2022/07/15 05:46:50;;;;;;;9.10;5.37;;;16.00;99.90;;;;;;4880862;29;20255;-65
2022/07/15 05:49:19;;;;;;;7.17;4.90;;;16.20;99.90;;;;;;4879312;29;20664;-66
2022/07/15 05:51:49;;;;;;;9.70;4.90;;;16.40;99.90;;;;;;4879230;29;20230;-65
2022/07/15 05:54:17;;;;;;;9.40;5.47;;;16.60;99.90;;;;;;4886833;29;20297;-65
2022/07/15 05:56:45;;;;;;;8.27;4.87;;;16.70;99.90;;;;;;4880706;29;20209;-65
2022/07/15 05:59:14;;;;;;;7.43;4.10;;;16.90;99.90;;;;;;4880237;29;20218;-63
2022/07/15 06:01:42;;;;;;;4.73;4.37;;;17.10;99.90;;;;;;4878886;29;20282;-63
2022/07/15 06:04:10;;;;;;;6.37;4.00;;;17.30;99.90;;;;;;4880236;29;20207;-63
2022/07/15 06:06:39;;;;;;;4.33;3.60;;;17.60;99.90;;;;;;4880093;29;20640;-65
2022/07/15 06:09:09;;;;;;;9.13;3.83;;;17.80;99.90;;;;;;4879785;29;20588;-66
2022/07/15 06:11:37;;;;;;;11.57;3.30;;;18.00;99.90;;;;;;4879779;29;20219;-66
2022/07/15 06:14:06;;;;;;;7.97;3.30;;;18.10;99.90;;;;;;4880121;29;20209;-66
2022/07/15 06:16:34;;;;;;;8.30;2.90;;;18.30;99.90;;;;;;4879072;29;20289;-66
2022/07/15 06:19:03;;;;;;;7.17;2.70;;;18.50;99.90;;;;;;4879738;29;20199;-63
2022/07/15 06:21:32;;;;;;;3.67;2.40;;;18.70;99.90;;;;;;4879624;29;20227;-63
2022/07/15 06:24:00;;;;;;;3.80;2.40;;;18.80;99.90;;;;;;4879667;29;20263;-64
2022/07/15 06:26:30;;;;;;;4.60;2.70;;;19.00;99.90;;;;;;4879668;29;20698;-64
2022/07/15 06:29:02;;;;;;;4.27;2.40;;;19.30;99.90;;;;;;4879545;29;20238;-64
2022/07/15 06:31:31;;;;;;;3.90;2.33;;;19.60;99.90;;;;;;4879510;29;20210;-64
2022/07/15 06:33:59;;;;;;;6.47;2.47;;;19.80;99.90;;;;;;4877746;29;20203;-64
2022/07/15 06:36:27;;;;;;;3.40;1.70;;;20.00;99.90;;;;;;4879134;29;20203;-64
2022/07/15 06:38:56;;;;;;;3.87;2.00;;;20.30;99.90;;;;;;4877873;29;20203;-63
2022/07/15 06:41:25;;;;;;;5.93;1.60;;;20.40;99.90;;;;;;4879287;29;20246;-64
2022/07/15 06:43:59;;;;;;;3.03;1.60;;;20.60;99.90;;;;;;4879608;29;20304;-64
2022/07/15 06:46:28;;;;;;;5.80;1.80;;;20.80;99.90;;;;;;4879447;29;20269;-64
2022/07/15 06:48:57;;;;;;;5.00;1.77;;;20.90;99.90;;;;;;4879319;29;20217;-64
2022/07/15 06:51:25;;;;;;;6.17;1.60;;;21.20;99.90;;;;;;4879215;29;20197;-64
2022/07/15 06:53:54;;;;;;;4.20;1.60;;;21.30;99.90;;;;;;4880382;29;20218;-64
2022/07/15 06:56:22;;;;;;;4.27;1.50;;;21.30;99.90;;;;;;4878938;29;20211;-64
2022/07/15 06:58:51;;;;;;;4.50;1.53;;;21.60;99.90;;;;;;4879209;29;20265;-64
2022/07/15 07:01:21;;;;;;;3.63;1.53;;;21.90;99.90;;;;;;4878848;29;20245;-65
2022/07/15 07:03:50;;;;;;;4.43;1.40;;;21.90;99.90;;;;;;4878151;29;20207;-64
2022/07/15 07:06:27;;;;;;;2.83;1.50;;;22.10;99.90;;;;;;4878949;29;20205;-64
2022/07/15 07:08:56;;;;;;;2.10;1.20;;;22.30;99.90;;;;;;4879209;29;20282;-64
2022/07/15 07:11:25;;;;;;;3.30;1.17;;;22.20;99.90;;;;;;4878670;29;20579;-64
2022/07/15 07:13:53;;;;;;;0.97;0.97;;;22.40;99.90;;;;;;4878900;29;20302;-64
2022/07/15 07:16:23;;;;;;;7.83;1.60;;;22.50;99.90;;;;;;4877558;29;20636;-64
2022/07/15 07:18:52;;;;;;;1.40;1.30;;;22.60;99.90;;;;;;4878589;29;20273;-64
2022/07/15 07:21:22;;;;;;;1.70;1.10;;;22.90;99.90;;;;;;4878206;29;20229;-64
2022/07/15 07:23:58;;;;;;;4.35;1.23;;;22.90;99.90;;;;;;4879162;29;20771;-64
2022/07/15 07:26:27;;;;;;;3.72;1.42;;;23.30;99.90;;;;;;4878309;29;20207;-64
2022/07/15 07:28:55;;;;;;;3.28;1.38;;;23.30;99.90;;;;;;4878858;29;20198;-64
2022/07/15 07:31:26;;;;;;;1.33;1.23;;;23.50;99.90;;;;;;4878756;29;20206;-64
2022/07/15 07:33:56;;;;;;;3.63;1.15;;;23.70;99.90;;;;;;4878514;29;20209;-64
2022/07/15 07:36:25;;;;;;;1.85;1.42;;;23.70;99.90;;;;;;4878161;29;20217;-64
2022/07/15 07:38:54;;;;;;;3.50;1.63;;;23.90;99.90;;;;;;4877162;29;20217;-64
2022/07/15 07:41:23;;;;;;;1.67;1.10;;;24.10;99.90;;;;;;4876962;29;20223;-64
2022/07/15 07:43:51;;;;;;;3.05;1.40;;;24.40;99.90;;;;;;4878294;29;20219;-64
2022/07/15 07:46:20;;;;;;;2.50;1.33;;;24.60;99.90;;;;;;4878397;29;20397;-64
2022/07/15 07:48:50;;;;;;;1.27;1.17;;;24.80;99.90;;;;;;4878540;29;20243;-64
2022/07/15 07:51:40;;;;;;;3.33;1.17;;;24.90;99.90;;;;;;4878381;29;20210;-64
2022/07/15 07:54:09;;;;;;;1.42;1.33;;;25.20;99.90;;;;;;4877793;29;20700;-64
2022/07/15 07:56:38;;;;;;;3.50;1.38;;;24.90;99.90;;;;;;4878146;29;20201;-64
2022/07/15 07:59:06;;;;;;;2.50;1.27;;;25.20;99.90;;;;;;4878175;29;20266;-64
2022/07/15 08:01:34;;;;;;;2.85;1.45;;;25.50;99.90;;;;;;4876487;29;20218;-64
2022/07/15 08:04:05;;;;;;;2.53;1.02;;;25.60;99.90;;;;;;4878334;29;20218;-64
2022/07/15 08:06:34;;;;;;;1.00;1.00;;;26.00;99.90;;;;;;4876879;29;20203;-64
2022/07/15 08:09:03;;;;;;;1.30;1.20;;;26.40;99.90;;;;;;4873328;29;20615;-64
2022/07/15 08:11:32;;;;;;;4.70;1.40;;;26.40;99.90;;;;;;4873460;29;20300;-64
2022/07/15 08:14:00;;;;;;;3.08;1.20;;;26.60;99.90;;;;;;4866850;29;20342;-64
2022/07/15 08:16:29;;;;;;;1.63;1.20;;;26.60;99.90;;;;;;4876190;29;20286;-64
2022/07/15 08:18:58;;;;;;;2.90;1.08;;;27.00;99.90;;;;;;4869761;29;20711;-64
2022/07/15 08:21:28;;;;;;;2.55;1.00;;;27.20;99.90;;;;;;4875358;29;20205;-64
2022/07/15 08:23:58;;;;;;;1.55;0.98;;;27.50;99.90;;;;;;4877373;29;20623;-64
2022/07/15 08:26:26;;;;;;;4.72;1.60;;;27.30;99.90;;;;;;4877293;29;20205;-63
2022/07/15 08:28:55;;;;;;;0.88;0.85;;;27.10;99.90;;;;;;4877520;29;20699;-66
2022/07/15 08:31:33;;;;;;;1.40;1.10;;;27.50;99.90;;;;;;4877737;29;20213;-65
2022/07/15 08:34:02;;;;;;;1.52;1.20;;;27.90;99.90;;;;;;4880591;29;20214;-65
2022/07/15 08:36:31;;;;;;;1.58;1.20;;;28.00;99.90;;;;;;4880389;29;20228;-65
2022/07/15 08:39:00;;;;;;;2.90;0.90;;;28.50;99.90;;;;;;4880560;29;20217;-65
2022/07/15 08:41:34;;;;;;;0.85;0.85;;;29.10;99.90;;;;;;4880730;29;20648;-65
2022/07/15 08:44:02;;;;;;;0.82;0.82;;;29.00;99.90;;;;;;4880789;29;20214;-65
2022/07/15 08:46:33;;;;;;;1.73;0.90;;;29.30;99.40;;;;;;4880737;29;20323;-65
2022/07/15 08:49:07;;;;;;;1.85;1.05;;;29.80;99.30;;;;;;4879559;29;20630;-65
2022/07/15 08:51:42;;;;;;;0.88;0.80;;;30.20;97.50;;;;;;4879391;29;20206;-65
2022/07/15 08:54:11;;;;;;;1.73;0.93;;;30.40;97.10;;;;;;4886183;29;20278;-65
2022/07/15 08:56:39;;;;;;;2.35;1.00;;;30.40;96.50;;;;;;4880448;29;20530;-65
2022/07/15 08:59:08;;;;;;;2.47;0.80;;;31.00;96.10;;;;;;4880700;29;20217;-65
2022/07/15 09:01:46;;;;;;;0.85;0.80;;;31.20;95.60;;;;;;4879325;29;20203;-65
2022/07/15 09:04:16;;;;;;;1.35;1.05;;;31.30;94.10;;;;;;4880934;29;20210;-65
2022/07/15 09:06:47;;;;;;;2.95;1.02;;;30.90;94.10;;;;;;4880490;29;20302;-65
2022/07/15 09:09:27;;;;;;;2.08;1.05;;;30.50;94.10;;;;;;4880167;29;20231;-64
2022/07/15 09:11:58;;;;;;;1.65;0.70;;;30.80;93.90;;;;;;4880814;29;20258;-64
2022/07/15 09:14:42;;;;;;;2.22;0.90;;;30.60;93.50;;;;;;4881149;29;20209;-66
2022/07/15 09:17:24;;;;;;;5.18;0.98;;;29.80;93.30;;;;;;4880958;29;20219;-66
2022/07/15 09:20:05;;;;;;;4.00;1.20;;;30.10;93.80;;;;;;4880902;29;20234;-71
2022/07/15 09:22:50;;;;;;;0.75;0.75;;;30.40;94.70;;;;;;4880739;29;20250;-64
2022/07/15 09:25:19;;;;;;;0.52;0.52;;;30.50;93.40;;;;;;4880653;29;20234;-64
2022/07/15 09:27:48;;;;;;;0.90;0.70;;;31.00;93.60;;;;;;4880480;29;20239;-64
2022/07/15 09:36:04;;;;;;;0.80;0.77;;;31.30;91.70;;;;;;4878741;29;20203;-64
2022/07/15 09:38:41;;;;;;;2.80;0.70;;;31.50;92.50;;;;;;4878818;29;20213;-65
2022/07/15 09:41:11;;;;;;;0.80;0.80;;;31.70;92.20;;;;;;4879988;29;20202;-65
2022/07/15 09:43:49;;;;;;;0.82;0.68;;;31.90;92.00;;;;;;4879477;29;20217;-65
2022/07/15 09:46:18;;;;;;;1.80;0.90;;;32.20;91.90;;;;;;4880094;29;20281;-64
2022/07/15 09:48:50;;;;;;;4.28;1.10;;;31.70;90.90;;;;;;4880047;29;20271;-64
2022/07/15 09:51:19;;;;;;;1.85;1.10;;;29.80;91.80;;;;;;4879850;29;20207;-65
2022/07/15 09:53:50;;;;;;;2.50;1.02;;;29.90;92.20;;;;;;4886554;29;20230;-64
2022/07/15 09:56:26;;;;;;;0.93;0.93;;;30.30;92.60;;;;;;4879682;29;20219;-64
2022/07/15 09:58:58;;;;;;;2.40;1.02;;;30.80;91.90;;;;;;4879704;29;20663;-65
2022/07/15 10:01:27;;;;;;;1.95;0.70;;;31.00;90.90;;;;;;4878226;29;20211;-64
2022/07/15 10:03:57;;;;;;;1.17;0.93;;;31.40;91.50;;;;;;4879973;29;20651;-64
2022/07/15 10:06:28;;;;;;;1.20;0.70;;;31.70;91.70;;;;;;4877939;29;20199;-64
2022/07/15 10:08:58;;;;;;;2.42;1.00;;;32.30;92.00;;;;;;4878310;29;20218;-65
2022/07/15 10:11:28;;;;;;;2.28;1.30;;;32.60;90.70;;;;;;4879423;29;20573;-65
2022/07/15 10:14:43;;;;;;;1.30;1.20;;;32.00;88.30;;;;;;4879456;29;20223;-64
2022/07/15 10:17:53;;;;;;;3.03;1.15;;;31.30;88.70;;;;;;4871283;29;20225;-64
2022/07/15 10:20:54;;;;;;;1.23;1.10;;;30.70;89.70;;;;;;4856413;29;20305;-64
2022/07/15 10:23:47;;;;;;;1.80;1.15;;;30.20;90.00;;;;;;4879362;29;20247;-64
2022/07/15 10:26:33;;;;;;;1.33;0.95;;;30.80;89.60;;;;;;4877849;29;20250;-65
2022/07/15 10:29:05;;;;;;;2.10;1.15;;;31.10;90.40;;;;;;4879374;29;20295;-64
2022/07/15 10:31:35;;;;;;;3.95;1.10;;;30.30;90.30;;;;;;4878869;29;20201;-64
2022/07/15 10:34:20;;;;;;;3.70;1.17;;;29.20;92.50;;;;;;4879023;29;20254;-64
2022/07/15 10:37:06;;;;;;;6.57;1.40;;;29.20;92.00;;;;;;4878702;29;20198;-64
2022/07/15 10:39:53;;;;;;;1.38;1.08;;;28.90;91.70;;;;;;4879178;29;20202;-63
2022/07/15 10:42:23;;;;;;;2.47;1.33;;;28.00;92.10;;;;;;4879148;29;20206;-63
2022/07/15 10:45:08;;;;;;;1.67;1.30;;;27.10;92.10;;;;;;4879136;29;20206;-63
2022/07/15 10:47:36;;;;;;;1.30;1.20;;;26.50;95.10;;;;;;4883116;29;20266;-63
2022/07/15 10:50:36;;;;;;;1.77;1.17;;;26.40;94.60;;;;;;4878663;29;20209;-64
2022/07/15 10:53:24;;;;;;;1.08;1.02;;;26.10;94.80;;;;;;4881382;29;20313;-63
2022/07/15 10:55:53;;;;;;;3.03;1.70;;;25.80;95.50;;;;;;4876608;29;20622;-63
2022/07/15 10:58:23;;;;;;;2.53;1.40;;;25.60;95.50;;;;;;4878704;29;20296;-63
2022/07/15 11:00:52;;;;;;;4.15;1.65;;;26.30;96.40;;;;;;4878742;29;20585;-64
2022/07/15 11:03:21;;;;;;;2.15;1.20;;;27.40;94.90;;;;;;4878800;29;20197;-64
2022/07/15 11:06:06;;;;;;;1.73;1.60;;;28.10;94.40;;;;;;4878254;29;20209;-64
2022/07/15 11:08:54;;;;;;;1.63;1.48;;;28.90;93.50;;;;;;4866047;29;20207;-64
2022/07/15 11:11:49;;;;;;;1.92;1.48;;;29.30;93.60;;;;;;4878438;29;20577;-64
2022/07/15 11:14:47;;;;;;;3.15;1.45;;;29.00;92.30;;;;;;4878788;29;20657;-64
2022/07/15 11:17:19;;;;;;;1.50;1.40;;;28.70;93.00;;;;;;4878160;29;20298;-64
2022/07/15 11:19:49;;;;;;;4.45;1.42;;;28.70;92.40;;;;;;4878345;29;20210;-64
2022/07/15 11:22:20;;;;;;;5.40;1.50;;;28.10;92.30;;;;;;4876986;29;20250;-64
2022/07/15 11:24:49;;;;;;;1.52;1.52;;;27.20;92.80;;;;;;4878408;29;20208;-64
2022/07/15 11:27:17;;;;;;;2.95;1.90;;;27.00;93.70;;;;;;4878091;29;20247;-63
2022/07/15 11:29:49;;;;;;;3.38;2.35;;;27.10;94.50;;;;;;4878258;29;20548;-63
2022/07/15 11:32:20;;;;;;;2.90;2.20;;;27.10;94.40;;;;;;4877994;29;20314;-63
2022/07/15 11:34:50;;;;;;;1.95;1.85;;;26.60;94.80;;;;;;4877920;29;20225;-63
2022/07/15 11:37:19;;;;;;;2.10;1.80;;;26.40;94.60;;;;;;4878239;29;20224;-64
2022/07/15 11:39:49;;;;;;;4.70;1.67;;;26.20;94.60;;;;;;4876732;29;20215;-64
2022/07/15 11:45:09;;;;;;;4.83;1.90;;;26.60;94.80;;;;;;4878288;29;20675;-63
2022/07/15 11:47:52;;;;;;;3.90;2.00;;;26.60;95.20;;;;;;4878104;29;20285;-63
2022/07/15 11:50:22;;;;;;;5.27;2.23;;;26.10;95.70;;;;;;4876576;29;20627;-63
2022/07/15 11:52:55;;;;;;;3.53;2.00;;;25.70;95.30;;;;;;4882828;29;20211;-63
2022/07/15 11:55:24;;;;;;;6.27;1.80;;;25.50;96.50;;;;;;4878614;29;20234;-63
2022/07/15 11:57:54;;;;;;;3.03;2.10;;;25.40;96.40;;;;;;4877947;29;20203;-63
2022/07/15 12:00:31;;;;;;;2.80;1.80;;;25.10;95.30;;;;;;4876242;29;20221;-63
2022/07/15 12:03:08;;;;;;;1.83;1.73;;;25.00;97.30;;;;;;4877723;29;20206;-63
2022/07/15 12:05:37;;;;;;;2.27;1.80;;;25.60;97.60;;;;;;4878011;29;20545;-63
2022/07/15 12:08:06;;;;;;;2.57;1.70;;;26.00;95.90;;;;;;4881705;29;20203;-63
2022/07/15 12:10:35;;;;;;;3.57;1.90;;;26.20;95.70;;;;;;4881558;29;20230;-64
2022/07/15 12:13:05;;;;;;;2.97;1.80;;;26.10;96.10;;;;;;4880372;29;20213;-63
2022/07/15 12:15:36;;;;;;;2.60;1.90;;;26.00;95.50;;;;;;4881435;29;20242;-63
2022/07/15 12:18:05;;;;;;;2.83;1.70;;;25.70;95.70;;;;;;4881390;29;20285;-63
2022/07/15 12:20:34;;;;;;;1.63;1.50;;;25.30;96.20;;;;;;4881454;29;20202;-63
2022/07/15 12:23:07;;;;;;;1.73;1.63;;;25.10;96.40;;;;;;4880164;29;20246;-63
2022/07/15 12:25:36;;;;;;;3.00;1.60;;;25.00;96.40;;;;;;4881231;29;20310;-63
2022/07/15 12:28:05;;;;;;;3.07;1.83;;;24.90;96.70;;;;;;4879990;29;20225;-64
2022/07/15 12:30:39;;;;;;;1.93;1.67;;;24.90;96.80;;;;;;4880784;29;20214;-63
2022/07/15 12:33:15;;;;;;;2.17;1.50;;;24.80;97.00;;;;;;4881309;29;20214;-63
2022/07/15 12:35:44;;;;;;;3.17;2.00;;;24.70;97.00;;;;;;4880732;29;20230;-64
2022/07/15 12:38:27;;;;;;;2.53;1.57;;;25.00;98.50;;;;;;4880191;29;20199;-63
2022/07/15 12:41:06;;;;;;;2.60;1.80;;;25.30;98.00;;;;;;4880949;29;20281;-63
2022/07/15 12:43:51;;;;;;;1.70;1.60;;;25.50;97.80;;;;;;4879714;29;20233;-63
2022/07/15 12:46:22;;;;;;;4.33;1.83;;;25.40;97.40;;;;;;4877925;29;20606;-63
2022/07/15 12:48:50;;;;;;;5.17;1.63;;;25.30;96.70;;;;;;4881025;29;20212;-63
2022/07/15 12:51:26;;;;;;;6.50;2.00;;;25.10;97.70;;;;;;4880902;29;20202;-63
2022/07/15 12:54:05;;;;;;;1.50;1.40;;;25.00;97.60;;;;;;4881149;29;20701;-63
2022/07/15 12:56:51;;;;;;;1.50;1.40;;;25.20;97.60;;;;;;4879780;29;20547;-64
2022/07/15 12:59:21;;;;;;;3.57;1.80;;;25.70;98.70;;;;;;4880947;29;20537;-63
2022/07/15 13:02:04;;;;;;;3.50;1.70;;;25.40;96.30;;;;;;4880765;29;20205;-63
2022/07/15 13:04:32;;;;;;;3.20;1.40;;;24.90;97.00;;;;;;4880803;29;20205;-63
2022/07/15 13:07:04;;;;;;;1.40;1.20;;;25.00;97.70;;;;;;4879645;29;20330;-63
2022/07/15 13:09:33;;;;;;;6.33;1.80;;;25.30;98.00;;;;;;4879496;29;20293;-63
2022/07/15 13:12:02;;;;;;;3.67;1.73;;;25.60;97.50;;;;;;4880543;29;20205;-64
2022/07/15 13:14:30;;;;;;;4.07;1.70;;;25.70;97.30;;;;;;4880734;29;20232;-64
2022/07/15 13:16:58;;;;;;;1.77;1.50;;;25.90;98.70;;;;;;4880316;29;20629;-63